Time;durP1;ratioP1;P1;durP2;ratioP2;P2;SDS_P1;SDS_P2;PMS_P1;PMS_P2;Temp;Humidity;BMP_temperature;BMP_pressure;BME280_temperature;BME280_humidity;BME280_pressure;Samples;Min_cycle;Max_cycle;Signal;HPM_P1;HPM_P2
2024/01/25 00:00:28;;;;;;;23.55;4.50;;;;;;;7.46;96.11;102507.72;7396126;19;19933;-76
2024/01/25 00:02:58;;;;;;;20.55;4.05;;;;;;;7.44;96.23;102522.19;7392771;19;19925;-76
2024/01/25 00:05:30;;;;;;;21.35;2.88;;;;;;;7.41;96.44;102541.19;7394787;19;19914;-76
2024/01/25 00:07:59;;;;;;;20.58;4.18;;;;;;;7.40;96.57;102526.09;7392453;19;19950;-75
2024/01/25 00:10:28;;;;;;;18.30;2.65;;;;;;;7.38;96.71;102522.69;7395950;19;19922;-75
2024/01/25 00:12:58;;;;;;;23.58;3.15;;;;;;;7.38;96.92;102520.00;7395094;19;20355;-76
2024/01/25 00:15:27;;;;;;;24.23;4.45;;;;;;;7.34;97.21;102535.44;7394998;19;20343;-75
2024/01/25 00:17:57;;;;;;;14.10;3.67;;;;;;;7.34;97.33;102529.22;7394712;19;19918;-75
2024/01/25 00:20:26;;;;;;;14.52;3.70;;;;;;;7.33;97.48;102519.47;7395911;19;19929;-75
2024/01/25 00:22:58;;;;;;;24.48;3.38;;;;;;;7.31;97.64;102516.91;7393274;19;19925;-75
2024/01/25 00:25:27;;;;;;;22.00;3.10;;;;;;;7.24;98.23;102513.84;7392654;19;19930;-75
2024/01/25 00:27:57;;;;;;;18.67;3.00;;;;;;;7.24;97.90;102518.34;7395734;19;19926;-75
2024/01/25 00:30:26;;;;;;;22.80;3.67;;;;;;;7.21;97.92;102495.28;7393097;19;19929;-75
2024/01/25 00:32:56;;;;;;;17.63;2.97;;;;;;;7.18;98.35;102508.06;7395187;19;19937;-76
2024/01/25 00:35:26;;;;;;;17.63;3.05;;;;;;;7.14;98.35;102512.81;7393305;19;19934;-76
2024/01/25 00:38:00;;;;;;;18.13;3.35;;;;;;;7.13;98.42;102507.56;7393291;19;19934;-75
2024/01/25 00:40:30;;;;;;;16.60;3.15;;;;;;;7.11;98.55;102510.38;7392883;19;19926;-75
2024/01/25 00:43:00;;;;;;;24.83;3.53;;;;;;;7.11;98.43;102510.38;7394171;19;20367;-76
2024/01/25 00:45:30;;;;;;;20.60;3.10;;;;;;;7.09;98.40;102522.16;7393818;19;19933;-76
2024/01/25 00:48:00;;;;;;;22.25;3.05;;;;;;;7.08;98.60;102512.41;7395231;19;19918;-75
2024/01/25 00:50:30;;;;;;;13.02;2.85;;;;;;;7.05;98.67;102526.03;7393635;19;19929;-75
2024/01/25 00:53:03;;;;;;;19.33;2.70;;;;;;;7.01;99.10;102522.72;7392333;19;19922;-76
2024/01/25 00:55:33;;;;;;;26.40;3.75;;;;;;;7.00;99.18;102522.84;7393834;19;19914;-75
2024/01/25 00:58:03;;;;;;;19.15;2.85;;;;;;;6.96;99.42;102527.56;7393478;19;19927;-76
2024/01/25 01:00:33;;;;;;;20.55;2.92;;;;;;;6.94;99.66;102528.66;7392773;19;19926;-75
2024/01/25 01:03:06;;;;;;;36.63;4.68;;;;;;;6.92;99.81;102531.44;7391655;19;19937;-75
2024/01/25 01:05:35;;;;;;;;;;;;;;;6.86;100.00;102547.13;7396414;19;20252;-75
2024/01/25 01:08:08;;;;;;;26.17;3.80;;;;;;;6.90;100.00;102548.63;7393580;19;20276;-75
2024/01/25 01:10:37;;;;;;;23.45;3.20;;;;;;;6.87;100.00;102548.81;7392296;19;19959;-75
2024/01/25 01:13:07;;;;;;;22.50;3.33;;;;;;;6.83;100.00;102545.50;7392506;19;19930;-75
2024/01/25 01:15:36;;;;;;;18.02;2.95;;;;;;;6.79;100.00;102544.88;7397407;19;19938;-75
2024/01/25 01:18:06;;;;;;;20.48;3.10;;;;;;;6.76;100.00;102558.50;7402591;19;19922;-75
2024/01/25 01:20:36;;;;;;;19.13;2.92;;;;;;;6.72;100.00;102561.53;7407781;19;19934;-75
2024/01/25 01:23:08;;;;;;;17.17;3.30;;;;;;;6.68;100.00;102557.34;7406783;19;19910;-75
2024/01/25 01:25:37;;;;;;;18.55;2.70;;;;;;;6.68;100.00;102558.22;7400447;19;20599;-75
2024/01/25 01:28:07;;;;;;;18.75;3.45;;;;;;;6.65;100.00;102561.09;7399832;19;20006;-76
2024/01/25 01:30:36;;;;;;;20.02;4.40;;;;;;;6.64;100.00;102569.25;7398140;19;19915;-75
2024/01/25 01:33:06;;;;;;;19.67;3.88;;;;;;;6.62;100.00;102571.16;7398187;19;19925;-75
2024/01/25 01:35:35;;;;;;;21.80;3.60;;;;;;;6.60;100.00;102568.59;7398456;19;19919;-75
2024/01/25 01:38:07;;;;;;;26.33;2.70;;;;;;;6.58;100.00;102565.19;7399027;19;19922;-75
2024/01/25 01:40:37;;;;;;;;;;;;;;;6.53;100.00;102572.69;7400127;19;19922;-75
2024/01/25 01:43:06;;;;;;;19.23;2.92;;;;;;;6.54;100.00;102566.38;7395569;19;19930;-75
2024/01/25 01:45:35;;;;;;;24.48;3.38;;;;;;;6.54;100.00;102568.19;7396884;19;19919;-75
2024/01/25 01:48:06;;;;;;;22.48;3.88;;;;;;;6.52;100.00;102572.78;7396648;19;19922;-75
2024/01/25 01:50:35;;;;;;;19.13;3.63;;;;;;;6.49;100.00;102581.03;7398817;19;19914;-75
2024/01/25 01:53:08;;;;;;;22.92;4.60;;;;;;;6.49;100.00;102575.69;7398091;19;19922;-75
2024/01/25 01:55:35;;;;;;;21.77;3.65;;;;;;;6.49;100.00;102575.69;7397973;19;19919;-75
2024/01/25 01:58:05;;;;;;;21.25;3.45;;;;;;;6.48;100.00;102579.31;7395732;19;20617;-75
2024/01/25 02:00:36;;;;;;;19.00;3.30;;;;;;;6.46;100.00;102587.47;7397128;19;19922;-75
2024/01/25 02:03:06;;;;;;;22.23;3.83;;;;;;;6.46;100.00;102589.31;7396995;19;19934;-75
2024/01/25 02:05:35;;;;;;;20.15;3.20;;;;;;;6.43;100.00;102602.91;7396526;19;19926;-75
2024/01/25 02:08:08;;;;;;;22.05;2.45;;;;;;;6.44;100.00;102612.63;7396442;19;19918;-75
2024/01/25 02:10:38;;;;;;;25.40;4.40;;;;;;;6.42;100.00;102603.88;7394472;19;19933;-75
2024/01/25 02:13:07;;;;;;;17.77;3.33;;;;;;;6.42;100.00;102593.16;7396602;19;19922;-75
2024/01/25 02:15:36;;;;;;;17.55;3.13;;;;;;;6.41;100.00;102610.19;7396298;19;19930;-75
2024/01/25 02:18:05;;;;;;;15.63;2.17;;;;;;;6.39;100.00;102608.47;7397593;19;20387;-75
2024/01/25 02:20:34;;;;;;;18.67;3.03;;;;;;;6.39;100.00;102615.63;7396420;19;19926;-75
2024/01/25 02:23:05;;;;;;;22.30;3.47;;;;;;;6.37;100.00;102623.78;7396809;19;19926;-75
2024/01/25 02:25:34;;;;;;;17.95;3.55;;;;;;;6.39;100.00;102616.50;7396368;19;19956;-75
2024/01/25 02:28:02;;;;;;;19.95;4.07;;;;;;;6.37;100.00;102615.75;7399527;19;19946;-75
2024/01/25 02:30:31;;;;;;;18.50;3.20;;;;;;;6.35;100.00;102615.00;7396056;19;19961;-76
2024/01/25 02:33:00;;;;;;;24.10;3.42;;;;;;;6.34;100.00;102626.66;7399515;19;19959;-75
2024/01/25 02:35:28;;;;;;;24.67;2.92;;;;;;;6.35;100.00;102631.06;7394322;19;19927;-75
2024/01/25 02:37:57;;;;;;;27.13;3.55;;;;;;;6.34;100.00;102629.34;7396719;19;19922;-75
2024/01/25 02:40:28;;;;;;;14.50;3.58;;;;;;;6.30;100.00;102635.88;7393976;19;19957;-75
2024/01/25 02:42:57;;;;;;;22.38;3.65;;;;;;;6.30;100.00;102638.53;7398599;19;19959;-75
2024/01/25 02:45:25;;;;;;;14.88;3.40;;;;;;;6.27;100.00;102636.09;7394532;19;19991;-75
2024/01/25 02:47:54;;;;;;;15.73;3.13;;;;;;;6.29;100.00;102633.31;7396459;19;19926;-75
2024/01/25 02:50:23;;;;;;;19.75;3.53;;;;;;;6.28;100.00;102635.13;7394902;19;19959;-75
2024/01/25 02:52:52;;;;;;;15.43;3.03;;;;;;;6.27;100.00;102640.56;7397023;19;19923;-75
2024/01/25 02:55:21;;;;;;;20.10;3.92;;;;;;;6.24;100.00;102638.97;7395492;19;19934;-75
2024/01/25 02:57:52;;;;;;;18.38;3.17;;;;;;;6.23;100.00;102647.97;7395932;19;19953;-75
2024/01/25 03:00:21;;;;;;;22.52;3.40;;;;;;;6.22;100.00;102638.22;7396403;19;20355;-75
2024/01/25 03:02:50;;;;;;;21.35;3.60;;;;;;;6.20;100.00;102661.56;7396513;19;19927;-75
2024/01/25 03:05:18;;;;;;;23.42;3.25;;;;;;;6.20;100.00;102645.50;7397756;19;19955;-75
2024/01/25 03:07:47;;;;;;;27.02;3.42;;;;;;;6.17;100.00;102648.38;7397639;19;19938;-75
2024/01/25 03:10:16;;;;;;;25.13;4.10;;;;;;;6.18;100.00;102649.22;7397151;19;19926;-75
2024/01/25 03:12:44;;;;;;;23.63;3.33;;;;;;;6.16;100.00;102660.06;7395158;19;20319;-75
2024/01/25 03:15:17;;;;;;;21.42;4.43;;;;;;;6.16;100.00;102654.72;7397616;19;19925;-75
2024/01/25 03:17:46;;;;;;;29.67;3.88;;;;;;;6.13;100.00;102657.56;7395002;19;19915;-75
2024/01/25 03:20:16;;;;;;;25.90;4.38;;;;;;;6.13;100.00;102649.53;7397678;19;19919;-75
2024/01/25 03:22:45;;;;;;;24.08;3.67;;;;;;;6.14;100.00;102653.09;7395836;19;19918;-75
2024/01/25 03:25:15;;;;;;;24.55;3.28;;;;;;;6.13;100.00;102654.91;7398257;19;19915;-75
2024/01/25 03:27:44;;;;;;;20.70;3.42;;;;;;;6.11;100.00;102662.19;7397202;19;19930;-75
2024/01/25 03:30:17;;;;;;;20.23;3.45;;;;;;;6.10;100.00;102655.13;7394937;19;20352;-75
2024/01/25 03:32:48;;;;;;;20.27;3.45;;;;;;;6.06;100.00;102658.09;7396143;19;19926;-75
2024/01/25 03:35:18;;;;;;;24.90;3.78;;;;;;;6.06;100.00;102676.84;7396679;19;20256;-75
2024/01/25 03:37:47;;;;;;;19.25;3.08;;;;;;;6.05;100.00;102672.44;7398525;19;19918;-75
2024/01/25 03:40:17;;;;;;;18.52;3.70;;;;;;;6.03;100.00;102682.41;7403367;19;19962;-75
2024/01/25 03:42:46;;;;;;;18.92;3.97;;;;;;;6.02;100.00;102681.53;7400255;19;20369;-75
2024/01/25 03:45:18;;;;;;;19.35;3.35;;;;;;;6.00;100.00;102674.59;7395904;19;20248;-75
2024/01/25 03:47:47;;;;;;;;;;;;;;;5.93;100.00;102688.38;7399421;19;19914;-75
2024/01/25 03:50:17;;;;;;;20.45;3.25;;;;;;;5.93;100.00;102676.81;7395228;19;20267;-74
2024/01/25 03:52:46;;;;;;;22.17;4.93;;;;;;;5.92;100.00;102672.41;7395526;19;19919;-75
2024/01/25 03:55:16;;;;;;;26.15;4.80;;;;;;;5.94;100.00;102689.22;7395689;19;19929;-75
2024/01/25 03:57:45;;;;;;;36.08;3.50;;;;;;;5.92;100.00;102680.44;7396416;19;19938;-75
2024/01/25 04:00:18;;;;;;;23.83;3.40;;;;;;;5.91;100.00;102676.06;7395567;19;20374;-75
2024/01/25 04:02:47;;;;;;;18.80;3.45;;;;;;;5.87;100.00;102679.88;7394808;19;19923;-75
2024/01/25 04:05:17;;;;;;;23.50;4.22;;;;;;;5.83;100.00;102679.19;7396408;19;19927;-75
2024/01/25 04:07:46;;;;;;;28.67;4.15;;;;;;;5.83;100.00;102681.00;7395674;19;19922;-75
2024/01/25 04:10:16;;;;;;;19.85;3.13;;;;;;;5.83;100.00;102686.34;7394351;19;20549;-75
2024/01/25 04:12:44;;;;;;;21.30;3.63;;;;;;;5.80;100.00;102694.59;7394237;19;19923;-75
2024/01/25 04:15:13;;;;;;;25.73;3.90;;;;;;;5.79;100.00;102692.88;7395800;19;19923;-75
2024/01/25 04:17:44;;;;;;;24.50;3.83;;;;;;;5.77;100.00;102694.81;7394042;19;19941;-75
2024/01/25 04:20:14;;;;;;;20.05;3.10;;;;;;;5.76;100.00;102685.91;7396633;19;19930;-76
2024/01/25 04:22:42;;;;;;;28.38;3.92;;;;;;;5.73;100.00;102691.47;7391107;19;19930;-75
2024/01/25 04:25:11;;;;;;;19.67;2.97;;;;;;;5.73;100.00;102698.66;7394541;19;19922;-76
2024/01/25 04:27:40;;;;;;;21.13;3.95;;;;;;;5.72;100.00;102705.81;7393790;19;19922;-75
2024/01/25 04:30:10;;;;;;;20.10;3.65;;;;;;;5.74;100.00;102694.97;7395136;19;19951;-75
2024/01/25 04:32:40;;;;;;;26.42;4.53;;;;;;;5.72;100.00;102697.78;7392494;19;19951;-75
2024/01/25 04:35:11;;;;;;;22.60;4.60;;;;;;;5.70;100.00;102693.47;7394531;19;19919;-75
2024/01/25 04:37:40;;;;;;;20.10;3.67;;;;;;;5.68;100.00;102687.38;7392714;19;19949;-75
2024/01/25 04:40:10;;;;;;;22.58;4.05;;;;;;;5.69;100.00;102678.41;7392908;19;19959;-74
2024/01/25 04:42:40;;;;;;;28.00;5.30;;;;;;;5.66;100.00;102690.16;7395416;19;19922;-75
2024/01/25 04:45:10;;;;;;;20.73;3.83;;;;;;;5.67;100.00;102699.03;7394015;19;19959;-75
2024/01/25 04:47:40;;;;;;;26.98;4.18;;;;;;;5.66;100.00;102716.88;7395180;19;19930;-75
2024/01/25 04:50:12;;;;;;;24.13;3.90;;;;;;;5.67;100.00;102705.25;7397187;19;19951;-75
2024/01/25 04:52:40;;;;;;;27.10;3.55;;;;;;;5.66;100.00;102713.34;7400117;19;19942;-75
2024/01/25 04:55:10;;;;;;;17.92;3.65;;;;;;;5.65;100.00;102711.66;7400554;19;20470;-75
2024/01/25 04:57:38;;;;;;;32.67;4.13;;;;;;;5.64;100.00;102717.97;7400779;19;19942;-75
2024/01/25 05:00:09;;;;;;;23.98;4.35;;;;;;;5.62;100.00;102715.38;7399990;19;19941;-75
2024/01/25 05:02:37;;;;;;;20.15;3.58;;;;;;;5.60;100.00;102725.31;7399327;19;19934;-75
2024/01/25 05:05:07;;;;;;;22.15;3.20;;;;;;;5.59;100.00;102728.09;7399811;19;19927;-75
2024/01/25 05:07:38;;;;;;;24.58;3.45;;;;;;;5.56;100.00;102723.81;7399023;19;19918;-75
2024/01/25 05:10:07;;;;;;;14.27;2.80;;;;;;;5.55;100.00;102726.56;7399797;19;19926;-75
2024/01/25 05:12:37;;;;;;;21.48;3.58;;;;;;;5.54;100.00;102723.03;7398643;19;19927;-75
2024/01/25 05:15:07;;;;;;;23.30;3.33;;;;;;;5.54;100.00;102722.19;7400095;19;19926;-75
2024/01/25 05:17:36;;;;;;;17.48;3.38;;;;;;;5.53;100.00;102728.47;7399542;19;19929;-75
2024/01/25 05:20:07;;;;;;;25.50;3.63;;;;;;;5.53;100.00;102725.78;7398495;19;19919;-75
2024/01/25 05:22:41;;;;;;;20.92;3.15;;;;;;;5.52;100.00;102749.03;7398535;19;19915;-75
2024/01/25 05:25:11;;;;;;;25.77;4.25;;;;;;;5.51;100.00;102754.47;7400089;19;19923;-75
2024/01/25 05:27:40;;;;;;;19.42;3.28;;;;;;;5.49;100.00;102754.53;7398251;19;19950;-75
2024/01/25 05:30:11;;;;;;;22.33;4.10;;;;;;;5.47;100.00;102756.47;7399892;19;19934;-74
2024/01/25 05:32:40;;;;;;;22.58;3.00;;;;;;;5.45;100.00;102759.25;7399108;19;19919;-75
2024/01/25 05:35:10;;;;;;;23.75;3.00;;;;;;;5.44;100.00;102756.66;7398062;19;19922;-75
2024/01/25 05:37:42;;;;;;;19.80;3.10;;;;;;;5.42;100.00;102755.91;7397384;19;19922;-75
2024/01/25 05:40:12;;;;;;;;;;;;;;;5.36;100.00;102754.47;7401213;19;19918;-75
2024/01/25 05:42:42;;;;;;;17.20;3.22;;;;;;;5.37;100.00;102758.00;7400452;19;19922;-75
2024/01/25 05:45:12;;;;;;;24.70;4.03;;;;;;;5.37;100.00;102761.53;7397724;19;19926;-75
2024/01/25 05:47:42;;;;;;;23.88;3.78;;;;;;;5.37;100.00;102764.22;7397563;19;20352;-75
2024/01/25 05:50:12;;;;;;;18.70;2.70;;;;;;;5.37;100.00;102769.56;7396718;19;20271;-74
2024/01/25 05:52:44;;;;;;;23.58;3.50;;;;;;;5.39;100.00;102772.97;7398578;19;19918;-75
2024/01/25 05:55:14;;;;;;;15.52;3.30;;;;;;;5.39;100.00;102775.66;7398824;19;19915;-75
2024/01/25 05:57:46;;;;;;;21.38;3.08;;;;;;;5.40;100.00;102772.03;7398429;19;19914;-75
2024/01/25 06:00:16;;;;;;;25.58;3.90;;;;;;;5.39;100.00;102781.00;7397645;19;20411;-76
2024/01/25 06:02:46;;;;;;;25.45;4.05;;;;;;;5.38;100.00;102790.00;7397274;19;20498;-75
2024/01/25 06:05:15;;;;;;;21.98;3.50;;;;;;;5.35;100.00;102779.47;7397699;19;19918;-75
2024/01/25 06:07:48;;;;;;;28.58;3.33;;;;;;;5.32;100.00;102778.81;7396795;19;19923;-75
2024/01/25 06:10:17;;;;;;;19.10;3.40;;;;;;;5.29;100.00;102781.69;7397814;19;19929;-75
2024/01/25 06:12:46;;;;;;;18.45;3.83;;;;;;;5.27;100.00;102780.91;7398356;19;19922;-75
2024/01/25 06:15:14;;;;;;;19.58;3.60;;;;;;;5.23;100.00;102782.06;7397702;19;20285;-75
2024/01/25 06:17:43;;;;;;;24.85;3.38;;;;;;;5.21;100.00;102783.97;7396791;19;19923;-75
2024/01/25 06:20:13;;;;;;;23.60;3.35;;;;;;;5.17;100.00;102775.31;7398303;19;20393;-75
2024/01/25 06:22:41;;;;;;;16.38;3.20;;;;;;;5.13;100.00;102767.56;7397183;19;19954;-75
2024/01/25 06:25:12;;;;;;;23.17;3.28;;;;;;;5.09;100.00;102771.41;7399216;19;19939;-75
2024/01/25 06:27:41;;;;;;;16.90;3.28;;;;;;;5.03;100.00;102776.16;7391320;19;19922;-76
2024/01/25 06:30:11;;;;;;;30.25;3.90;;;;;;;5.01;100.00;102779.84;7396692;19;19926;-74
2024/01/25 06:32:40;;;;;;;18.90;3.13;;;;;;;4.97;100.00;102789.00;7397305;19;19922;-75
2024/01/25 06:35:10;;;;;;;23.30;3.40;;;;;;;4.95;100.00;102785.59;7395832;19;19926;-75
2024/01/25 06:37:38;;;;;;;23.67;3.53;;;;;;;4.93;100.00;102791.00;7394608;19;19923;-75
2024/01/25 06:40:09;;;;;;;23.55;3.67;;;;;;;4.93;100.00;102790.16;7397181;19;20027;-75
2024/01/25 06:42:40;;;;;;;15.98;3.65;;;;;;;4.92;100.00;102791.09;7393205;19;20324;-75
2024/01/25 06:45:09;;;;;;;18.80;2.95;;;;;;;4.89;100.00;102792.16;7396177;19;19981;-75
2024/01/25 06:47:37;;;;;;;23.85;4.65;;;;;;;4.89;100.00;102804.66;7392815;19;19982;-76
2024/01/25 06:50:07;;;;;;;28.90;3.88;;;;;;;4.88;100.00;102789.56;7394938;19;19915;-76
2024/01/25 06:52:36;;;;;;;17.58;2.90;;;;;;;4.86;100.00;102783.47;7393489;19;19958;-74
2024/01/25 06:55:05;;;;;;;20.67;4.25;;;;;;;4.83;100.00;102781.00;7398282;19;20662;-75
2024/01/25 06:57:33;;;;;;;21.38;3.13;;;;;;;4.80;100.00;102797.19;7395412;19;19946;-78
2024/01/25 07:00:05;;;;;;;20.85;4.35;;;;;;;4.77;100.00;102798.25;7397633;19;19926;-77
2024/01/25 07:02:33;;;;;;;16.75;3.50;;;;;;;4.75;100.00;102796.59;7396074;19;20474;-76
2024/01/25 07:05:02;;;;;;;20.60;2.78;;;;;;;4.72;100.00;102800.31;7396664;19;19931;-79
2024/01/25 07:07:32;;;;;;;24.50;3.72;;;;;;;4.69;100.00;102797.84;7393305;19;19922;-76
2024/01/25 07:10:01;;;;;;;23.30;3.65;;;;;;;4.67;100.00;102805.09;7396996;19;20680;-77
2024/01/25 07:12:31;;;;;;;28.33;3.58;;;;;;;4.66;100.00;102805.19;7394187;19;20252;-77
2024/01/25 07:15:00;;;;;;;20.98;3.58;;;;;;;4.66;100.00;102806.03;7395784;19;19930;-77
2024/01/25 07:17:31;;;;;;;25.17;4.80;;;;;;;4.64;100.00;102807.94;7396650;19;19922;-77
2024/01/25 07:20:00;;;;;;;17.38;3.85;;;;;;;4.64;100.00;102810.63;7397465;19;19951;-76
2024/01/25 07:22:29;;;;;;;18.77;3.13;;;;;;;4.63;100.00;102810.69;7394715;19;19931;-75
2024/01/25 07:24:57;;;;;;;18.15;3.10;;;;;;;4.61;100.00;102818.81;7393925;19;20360;-75
2024/01/25 07:27:26;;;;;;;25.30;3.45;;;;;;;4.61;100.00;102815.28;7394621;19;19918;-75
2024/01/25 07:29:55;;;;;;;23.17;3.58;;;;;;;4.60;100.00;102814.41;7394457;19;19930;-75
2024/01/25 07:32:24;;;;;;;23.60;3.95;;;;;;;4.61;100.00;102813.47;7392596;19;20539;-74
2024/01/25 07:34:55;;;;;;;19.50;3.28;;;;;;;4.60;100.00;102819.75;7394350;19;19957;-75
2024/01/25 07:37:24;;;;;;;18.92;3.60;;;;;;;4.60;100.00;102817.09;7396776;19;19934;-75
2024/01/25 07:39:53;;;;;;;28.20;3.70;;;;;;;4.62;100.00;102819.69;7396213;19;19926;-75
2024/01/25 07:42:21;;;;;;;25.27;4.45;;;;;;;4.65;100.00;102814.16;7397832;19;19927;-74
2024/01/25 07:44:50;;;;;;;22.98;3.22;;;;;;;4.68;100.00;102813.94;7396617;19;19926;-75
2024/01/25 07:47:18;;;;;;;23.40;3.50;;;;;;;4.73;100.00;102823.41;7396147;19;19926;-74
2024/01/25 07:49:47;;;;;;;23.33;5.20;;;;;;;4.78;100.00;102826.69;7394912;19;20299;-74
2024/01/25 07:52:18;;;;;;;21.17;3.13;;;;;;;4.83;100.00;102832.56;7396178;19;19943;-74
2024/01/25 07:54:47;;;;;;;19.77;3.33;;;;;;;4.85;100.00;102827.16;7396872;19;19982;-75
2024/01/25 07:57:15;;;;;;;24.35;5.00;;;;;;;4.85;100.00;102838.69;7396683;19;19954;-74
2024/01/25 07:59:44;;;;;;;20.65;4.03;;;;;;;4.87;100.00;102836.81;7396302;19;19936;-75
2024/01/25 08:02:13;;;;;;;29.40;3.83;;;;;;;4.88;100.00;102834.97;7396510;19;19922;-74
2024/01/25 08:04:41;;;;;;;25.60;4.47;;;;;;;4.88;100.00;102830.50;7395771;19;19919;-74
2024/01/25 08:07:10;;;;;;;27.48;5.70;;;;;;;4.89;100.00;102831.34;7396286;19;19953;-75
2024/01/25 08:09:42;;;;;;;14.65;3.35;;;;;;;4.92;100.00;102831.16;7396075;19;19923;-75
2024/01/25 08:12:11;;;;;;;;;;;;;;;4.89;100.00;102839.38;7399552;19;19930;-74
2024/01/25 08:14:42;;;;;;;22.92;3.35;;;;;;;4.91;100.00;102833.00;7394815;19;20352;-75
2024/01/25 08:17:12;;;;;;;15.23;3.45;;;;;;;4.97;100.00;102845.09;7396025;19;19926;-74
2024/01/25 08:19:42;;;;;;;19.75;3.05;;;;;;;4.99;100.00;102844.06;7396775;19;19919;-75
2024/01/25 08:22:11;;;;;;;24.50;3.42;;;;;;;5.03;100.00;102832.25;7395111;19;19914;-75
2024/01/25 08:24:44;;;;;;;25.08;4.60;;;;;;;5.05;100.00;102833.97;7396069;19;19930;-74
2024/01/25 08:27:13;;;;;;;26.63;4.57;;;;;;;5.08;100.00;102834.63;7394733;19;19906;-75
2024/01/25 08:29:43;;;;;;;21.75;3.50;;;;;;;5.11;100.00;102847.81;7396591;19;20003;-75
2024/01/25 08:32:12;;;;;;;18.90;3.97;;;;;;;5.12;100.00;102844.19;7394770;19;19918;-74
2024/01/25 08:34:42;;;;;;;23.65;3.78;;;;;;;5.10;100.00;102847.88;7396059;19;19930;-74
2024/01/25 08:37:11;;;;;;;20.85;4.97;;;;;;;5.10;100.00;102858.56;7395332;19;19937;-75
2024/01/25 08:39:45;;;;;;;20.95;4.25;;;;;;;5.09;100.00;102864.88;7396127;19;19923;-75
2024/01/25 08:42:15;;;;;;;24.98;3.25;;;;;;;5.09;100.00;102856.88;7394879;19;19934;-75
2024/01/25 08:44:48;;;;;;;29.42;3.88;;;;;;;5.11;100.00;102863.84;7396332;19;20363;-75
2024/01/25 08:47:19;;;;;;;24.20;3.40;;;;;;;5.13;100.00;102875.28;7394070;19;19911;-75
2024/01/25 08:49:49;;;;;;;14.73;3.40;;;;;;;5.13;100.00;102875.28;7392736;19;19911;-75
2024/01/25 08:52:19;;;;;;;20.75;3.10;;;;;;;5.17;100.00;102874.16;7392280;19;19926;-74
2024/01/25 08:54:51;;;;;;;24.73;3.38;;;;;;;5.20;100.00;102884.66;7393744;19;19926;-74
2024/01/25 08:57:20;;;;;;;24.10;4.10;;;;;;;5.20;100.00;102873.97;7394510;19;19923;-75
2024/01/25 08:59:49;;;;;;;20.35;3.80;;;;;;;5.22;100.00;102879.22;7392287;19;19922;-75
2024/01/25 09:02:21;;;;;;;20.90;4.28;;;;;;;5.25;100.00;102879.88;7394335;19;20344;-74
2024/01/25 09:04:51;;;;;;;19.63;3.75;;;;;;;5.26;100.00;102868.25;7392331;19;19923;-75
2024/01/25 09:07:20;;;;;;;21.75;3.63;;;;;;;5.29;100.00;102853.84;7393946;19;19938;-75
2024/01/25 09:09:52;;;;;;;22.83;3.85;;;;;;;5.32;100.00;102858.97;7393082;19;20522;-76
2024/01/25 09:12:22;;;;;;;26.67;3.85;;;;;;;5.32;100.00;102854.50;7393175;19;19926;-75
2024/01/25 09:14:51;;;;;;;31.80;4.70;;;;;;;5.35;100.00;102848.97;7391942;19;19919;-74
2024/01/25 09:17:21;;;;;;;22.33;3.63;;;;;;;5.38;100.00;102854.13;7392301;19;20356;-74
2024/01/25 09:19:51;;;;;;;29.58;5.55;;;;;;;5.42;100.00;102841.44;7393212;19;19929;-75
2024/01/25 09:22:21;;;;;;;27.30;4.57;;;;;;;5.43;100.00;102845.84;7391285;19;19926;-75
2024/01/25 09:24:53;;;;;;;21.45;3.38;;;;;;;5.46;100.00;102850.97;7394337;19;20267;-75
2024/01/25 09:27:23;;;;;;;24.00;2.92;;;;;;;5.47;100.00;102842.88;7391668;19;19945;-74
2024/01/25 09:29:52;;;;;;;22.98;4.38;;;;;;;5.52;100.00;102849.75;7392642;19;19918;-74
2024/01/25 09:32:22;;;;;;;18.15;3.72;;;;;;;5.53;100.00;102848.75;7392084;19;20473;-75
2024/01/25 09:34:52;;;;;;;22.83;5.97;;;;;;;5.57;100.00;102860.97;7393388;19;19923;-75
2024/01/25 09:37:23;;;;;;;24.25;3.83;;;;;;;5.61;100.00;102862.53;7397547;19;19915;-75
2024/01/25 09:39:55;;;;;;;29.40;4.28;;;;;;;5.66;100.00;102860.41;7397903;19;19922;-74
2024/01/25 09:42:24;;;;;;;;;;;;;;;5.65;100.00;102875.59;7401753;19;19927;-74
2024/01/25 09:44:54;;;;;;;26.23;2.92;;;;;;;5.70;100.00;102878.84;7397428;19;19919;-75
2024/01/25 09:47:25;;;;;;;29.77;3.70;;;;;;;5.73;100.00;102876.00;7399152;19;20291;-75
2024/01/25 09:49:54;;;;;;;24.30;3.67;;;;;;;5.79;100.00;102885.41;7397202;19;19919;-75
2024/01/25 09:52:26;;;;;;;25.60;4.20;;;;;;;5.81;100.00;102883.53;7398783;19;19922;-75
2024/01/25 09:54:58;;;;;;;21.75;4.55;;;;;;;5.84;100.00;102883.31;7397303;19;19922;-75
2024/01/25 09:57:32;;;;;;;23.25;3.63;;;;;;;5.86;100.00;102874.28;7398410;19;19926;-74
2024/01/25 10:00:01;;;;;;;18.40;3.70;;;;;;;5.92;100.00;102873.03;7395800;19;19927;-75
2024/01/25 10:02:30;;;;;;;22.65;4.07;;;;;;;5.98;100.00;102874.47;7398695;19;19946;-74
2024/01/25 10:05:00;;;;;;;26.60;4.63;;;;;;;6.03;100.00;102870.53;7397876;19;19922;-74
2024/01/25 10:07:39;;;;;;;20.23;3.58;;;;;;;6.07;100.00;102874.72;7398310;19;19925;-75
2024/01/25 10:10:13;;;;;;;23.27;5.00;;;;;;;6.14;100.00;102869.81;7398810;19;19919;-75
2024/01/25 10:12:44;;;;;;;23.05;4.38;;;;;;;6.18;100.00;102882.03;7395693;19;19923;-74
2024/01/25 10:15:15;;;;;;;27.67;3.53;;;;;;;6.21;100.00;102882.69;7399168;19;19929;-74
2024/01/25 10:17:45;;;;;;;22.73;3.58;;;;;;;6.26;100.00;102883.25;7396964;19;20021;-74
2024/01/25 10:20:16;;;;;;;25.88;4.03;;;;;;;6.27;100.00;102868.06;7399141;19;19930;-74
2024/01/25 10:22:46;;;;;;;19.55;3.50;;;;;;;6.28;100.00;102884.03;7397523;19;19915;-74
2024/01/25 10:25:18;;;;;;;20.25;3.72;;;;;;;6.29;100.00;102875.06;7396407;19;19925;-74
2024/01/25 10:27:48;;;;;;;25.38;3.85;;;;;;;6.29;100.00;102879.53;7397402;19;19927;-74
2024/01/25 10:30:18;;;;;;;20.23;3.53;;;;;;;6.30;100.00;102876.75;7396312;19;19926;-75
2024/01/25 10:32:49;;;;;;;24.65;4.65;;;;;;;6.31;100.00;102873.13;7397003;19;19918;-75
2024/01/25 10:35:19;;;;;;;31.92;6.30;;;;;;;6.36;100.00;102854.94;7393648;19;19923;-75
2024/01/25 10:37:49;;;;;;;24.27;4.63;;;;;;;6.48;100.00;102863.13;7397758;19;19918;-75
2024/01/25 10:40:21;;;;;;;22.15;4.53;;;;;;;6.53;100.00;102866.34;7397625;19;19910;-75
2024/01/25 10:42:51;;;;;;;30.75;4.40;;;;;;;6.60;100.00;102859.66;7398424;19;19938;-75
2024/01/25 10:45:20;;;;;;;22.40;4.18;;;;;;;6.56;100.00;102866.16;7397082;19;19925;-75
2024/01/25 10:47:51;;;;;;;30.52;4.55;;;;;;;6.52;100.00;102870.84;7397119;19;20303;-75
2024/01/25 10:50:21;;;;;;;27.20;4.80;;;;;;;6.53;100.00;102852.97;7394856;19;19930;-77
2024/01/25 10:52:51;;;;;;;19.48;3.70;;;;;;;6.59;100.00;102855.25;7395584;19;19927;-80
2024/01/25 10:55:25;;;;;;;23.95;4.47;;;;;;;6.72;100.00;102853.47;7396982;19;19943;-75
2024/01/25 10:57:55;;;;;;;24.95;4.60;;;;;;;6.75;100.00;102846.06;7395642;19;19930;-77
2024/01/25 11:00:25;;;;;;;23.25;4.15;;;;;;;6.81;100.00;102839.44;7397230;19;19923;-74
2024/01/25 11:02:54;;;;;;;22.45;3.90;;;;;;;6.83;100.00;102826.78;7395382;19;19926;-78
2024/01/25 11:05:26;;;;;;;22.55;4.72;;;;;;;6.84;100.00;102834.72;7395435;19;19915;-75
2024/01/25 11:07:55;;;;;;;29.23;5.70;;;;;;;6.86;100.00;102833.78;7396555;19;20355;-75
2024/01/25 11:10:28;;;;;;;26.38;5.07;;;;;;;6.88;100.00;102834.50;7397256;19;19915;-80
2024/01/25 11:12:59;;;;;;;35.08;5.38;;;;;;;6.89;100.00;102837.09;7394766;19;19927;-76
2024/01/25 11:15:34;;;;;;;27.23;4.95;;;;;;;6.93;100.00;102830.56;7395168;19;19926;-74
2024/01/25 11:18:06;;;;;;;29.38;5.20;;;;;;;7.00;100.00;102826.47;7395995;19;19926;-75
2024/01/25 11:20:36;;;;;;;;;;;;;;;7.11;100.00;102826.59;7398714;19;19942;-74
2024/01/25 11:23:09;;;;;;;22.33;4.32;;;;;;;7.30;100.00;102821.66;7396712;19;19927;-76
2024/01/25 11:25:41;;;;;;;22.65;3.90;;;;;;;7.42;100.00;102832.50;7395345;19;19918;-74
2024/01/25 11:28:10;;;;;;;28.58;3.95;;;;;;;7.56;100.00;102830.53;7396817;19;19914;-75
2024/01/25 11:30:40;;;;;;;27.15;5.28;;;;;;;7.73;100.00;102834.69;7396064;19;19953;-75